Leesburg, VA

09:51 PM EDT on September 19, 2014 (GMT -0400)
Washington Dulles International | Change Station
CLOSE
Current Station
Airport
Location: Dulles Airport,
Elevation: 322 ft
Nearby Weather Stations

Elev 322 ft 38.93 °N, 77.45 °W | Updated 59 minutes ago

Molnigt
Molnigt
67 °F
Feels Like 67 °F
N
7
Vind Växlande Vind from O/SO

Idag
High -- | Low -- °F
--% Chance of Precip.
Yesterday
High -- | Low -- °F
Precip. -- tum
6:55 AM 7:12 PM
Fjärde kvarteret, 15% visible
Lufttryck 30.28 tum
Sikt 10.0 miles
Molnigt Mestadels molnigt 6000 ft
Molnigt 9000 ft
Daggpunkt 56 °F
Luftfuktighet 68%
Rainfall 0.00 tum
Snow Depth Not available.
UV 0 out of 12
Pollen 4.00 out of 12
Ozon God
PM2.5 Måttlig
Flu Activity Not available.
METAR KIAD 200052Z 11006KT 10SM BKN060 OVC090 19/13 A3028 RMK AO2 SLP252 T01940133

More Conditions Fewer Conditions

Lufttryck 30.28 tum
Sikt 10.0 miles
Molnigt Mestadels molnigt 6000 ft
Molnigt 9000 ft
Daggpunkt 56 °F
Luftfuktighet 68%
Rainfall 0.00 tum
Snow Depth Not available.
UV 0 out of 12
Pollen 4.00 out of 12
Ozon God
PM2.5 Måttlig
Flu Activity Not available.
METAR KIAD 200052Z 11006KT 10SM BKN060 OVC090 19/13 A3028 RMK AO2 SLP252 T01940133

More Conditions Fewer Conditions

10-Day Weather Forecast

Almanac

Astronomi

Sep. 19, 2014 Rise Set
Actual Time 6:55 AM EDT 7:12 PM EDT
Civil Twilight 6:28 AM EDT 7:39 PM EDT
Nautical Twilight 5:57 AM EDT 8:10 PM EDT
Astronomical Twilight 5:25 AM EDT 8:42 PM EDT
Månen 2:40 AM EDT (9/19) 4:38 PM EDT (9/19)
Length Of Visible Light 13h 10m
Dagens längd
12h 16m
Tomorrow will be 2m 32s shorter.
Fjärde kvarteret, 15% of the Moon is Illuminated
Idag
Fjärde kvarteret
Sep 24
New
Oct 1
Första kvarteret
Oct 8
Fullmåne
Oct 15
Sista kvarteret

Today's Extremes

State Highs State Lows

Community

WunderPhotos

Upload Photos

1,754,760 photos uploaded!

WunderBlogs® & News

Nearby

Air Quality

  Air Quality AQ Index Pollutant
Yesterday God
PM10
Yesterday God
OZONE
Current Måttlig
PM2.5
Current God
OZONE
Fredag Måttlig
PM2.5
Lördag Måttlig
PM2.5
Söndag Måttlig
PM2.5
Måndag God
PM2.5
Tisdag God
PM2.5
Onsdag God
PM2.5

Snödjup

Station Depth Elevation
No new snow has been reported.

Earthquake Activity

Stad Distance Mag. Time & Date
No recent earthquake activity has been reported nearby.
Minimum magnitude displayed is 2.5.

Coastal Water Temperatures

Plats Temperatur
No Stations Reporting

Nearby Weather Stations